Test XHTML 1.0 Strict Page for WU-History Testing
Station Historical Data
 
Daily Summary for February 27, 2015 Units:  Both    English   Metric
« Previous Day
Next Day »
Daily Weekly Monthly Yearly Custom
  Current: High: Low: Average:
Temperature: 28.4 °F /  -2 °C 31.3 °F /  -0.4 °C 28.2 °F /  -2.1 °C 29.6 °F /  -1.3 °C
Dew Point: 27.9 °F /  -2.3 °C 30.0 °F /  -1.1 °C 27.7 °F /  -2.4 °C 28.7 °F /  -1.8 °C
Humidity: 98% 98% 94% 96%
Wind Speed: 0.0mph /  0km/h 0.0mph /  0km/h - 0mph /  0km/h
Wind Gust: 0.0mph /  0km/h 0.0mph /  0km/h - -
WindCalm - - North
Pressure: 26.59 in /  900.3 hPa 26.59 in /  900.3 hPa 26.59 in /  900.3 hPa -
Precipitation: 0.00 in /  0 mm      
Historical Graphs
 
 
Weather-Above Climate History
Untitled
Tabular Data for February 27, 2015
Time Temperature Dew Point Pressure Wind Wind Speed Wind Gust Humidity Rainfall Rate (Hourly)
00:02 31.1 °F /  -0.5 °C 29.8 °F /  -1.2 °C 26.59in /  900.3hPa Calm     95% 0.00in /  0cm
00:07 31.1 °F /  -0.5 °C 29.8 °F /  -1.2 °C 26.59in /  900.3hPa Calm     95% 0.00in /  0cm
00:12 31.1 °F /  -0.5 °C 29.8 °F /  -1.2 °C 26.59in /  900.3hPa Calm     95% 0.00in /  0cm
00:17 31.1 °F /  -0.5 °C 29.8 °F /  -1.2 °C 26.59in /  900.3hPa Calm     95% 0.00in /  0cm
00:22 31.1 °F /  -0.5 °C 29.8 °F /  -1.2 °C 26.59in /  900.3hPa Calm     95% 0.00in /  0cm
00:27 31.3 °F /  -0.4 °C 30.0 °F /  -1.1 °C 26.59in /  900.3hPa Calm     95% 0.00in /  0cm
00:32 31.3 °F /  -0.4 °C 29.8 °F /  -1.2 °C 26.59in /  900.3hPa Calm     94% 0.00in /  0cm
00:37 31.1 °F /  -0.5 °C 29.6 °F /  -1.3 °C 26.59in /  900.3hPa Calm     94% 0.00in /  0cm
00:42 31.1 °F /  -0.5 °C 29.6 °F /  -1.3 °C 26.59in /  900.3hPa Calm     94% 0.00in /  0cm
00:47 30.9 °F /  -0.6 °C 29.4 °F /  -1.4 °C 26.59in /  900.3hPa Calm     94% 0.00in /  0cm
00:52 30.7 °F /  -0.7 °C 29.2 °F /  -1.6 °C 26.59in /  900.3hPa Calm     94% 0.00in /  0cm
00:57 30.6 °F /  -0.8 °C 29.3 °F /  -1.5 °C 26.59in /  900.3hPa Calm     95% 0.00in /  0cm
01:02 30.4 °F /  -0.9 °C 29.1 °F /  -1.6 °C 26.59in /  900.3hPa Calm     95% 0.00in /  0cm
01:07 30.4 °F /  -0.9 °C 29.1 °F /  -1.6 °C 26.59in /  900.3hPa Calm     95% 0.00in /  0cm
01:12 30.2 °F /  -1 °C 28.9 °F /  -1.7 °C 26.59in /  900.3hPa Calm     95% 0.00in /  0cm
01:17 30.0 °F /  -1.1 °C 29.0 °F /  -1.7 °C 26.59in /  900.3hPa Calm     96% 0.00in /  0cm
01:22 29.8 °F /  -1.2 °C 28.8 °F /  -1.8 °C 26.59in /  900.3hPa Calm     96% 0.00in /  0cm
01:27 29.8 °F /  -1.2 °C 28.8 °F /  -1.8 °C 26.59in /  900.3hPa Calm     96% 0.00in /  0cm
01:32 29.7 °F /  -1.3 °C 28.7 °F /  -1.8 °C 26.59in /  900.3hPa Calm     96% 0.00in /  0cm
01:37 29.5 °F /  -1.4 °C 28.5 °F /  -1.9 °C 26.59in /  900.3hPa Calm     96% 0.00in /  0cm
01:42 29.3 °F /  -1.5 °C 28.3 °F /  -2.1 °C 26.59in /  900.3hPa Calm     96% 0.00in /  0cm
01:47 29.5 °F /  -1.4 °C 28.7 °F /  -1.8 °C 26.59in /  900.3hPa Calm     97% 0.00in /  0cm
01:52 29.5 °F /  -1.4 °C 28.5 °F /  -1.9 °C 26.59in /  900.3hPa Calm     96% 0.00in /  0cm
01:57 29.3 °F /  -1.5 °C 28.6 °F /  -1.9 °C 26.59in /  900.3hPa Calm     97% 0.00in /  0cm
02:02 29.5 °F /  -1.4 °C 28.7 °F /  -1.8 °C 26.59in /  900.3hPa Calm     97% 0.00in /  0cm
02:07 29.3 °F /  -1.5 °C 28.3 °F /  -2.1 °C 26.59in /  900.3hPa Calm     96% 0.00in /  0cm
02:12 29.3 °F /  -1.5 °C 28.6 °F /  -1.9 °C 26.59in /  900.3hPa Calm     97% 0.00in /  0cm
02:17 29.1 °F /  -1.6 °C 28.4 °F /  -2 °C 26.59in /  900.3hPa Calm     97% 0.00in /  0cm
02:22 28.9 °F /  -1.7 °C 27.9 °F /  -2.3 °C 26.59in /  900.3hPa Calm     96% 0.00in /  0cm
02:27 28.8 °F /  -1.8 °C 28.0 °F /  -2.2 °C 26.59in /  900.3hPa Calm     97% 0.00in /  0cm
02:32 28.8 °F /  -1.8 °C 28.0 °F /  -2.2 °C 26.59in /  900.3hPa Calm     97% 0.00in /  0cm
02:37 28.8 °F /  -1.8 °C 28.0 °F /  -2.2 °C 26.59in /  900.3hPa Calm     97% 0.00in /  0cm
02:42 28.9 °F /  -1.7 °C 28.2 °F /  -2.1 °C 26.59in /  900.3hPa Calm     97% 0.00in /  0cm
02:47 28.8 °F /  -1.8 °C 28.3 °F /  -2.1 °C 26.59in /  900.3hPa Calm     98% 0.00in /  0cm
02:52 28.8 °F /  -1.8 °C 28.0 °F /  -2.2 °C 26.59in /  900.3hPa Calm     97% 0.00in /  0cm
02:57 28.9 °F /  -1.7 °C 28.2 °F /  -2.1 °C 26.59in /  900.3hPa Calm     97% 0.00in /  0cm
03:02 28.9 °F /  -1.7 °C 28.4 °F /  -2 °C 26.59in /  900.3hPa Calm     98% 0.00in /  0cm
03:07 28.9 °F /  -1.7 °C 28.2 °F /  -2.1 °C 26.59in /  900.3hPa Calm     97% 0.00in /  0cm
03:12 28.8 °F /  -1.8 °C 28.3 °F /  -2.1 °C 26.59in /  900.3hPa Calm     98% 0.00in /  0cm
03:17 28.8 °F /  -1.8 °C 28.3 °F /  -2.1 °C 26.59in /  900.3hPa Calm     98% 0.00in /  0cm
03:22 28.4 °F /  -2 °C 27.9 °F /  -2.3 °C 26.59in /  900.3hPa Calm     98% 0.00in /  0cm
03:27 28.4 °F /  -2 °C 27.9 °F /  -2.3 °C 26.59in /  900.3hPa Calm     98% 0.00in /  0cm
03:32 28.4 °F /  -2 °C 27.9 °F /  -2.3 °C 26.59in /  900.3hPa Calm     98% 0.00in /  0cm
03:37 28.4 °F /  -2 °C 27.9 °F /  -2.3 °C 26.59in /  900.3hPa Calm     98% 0.00in /  0cm
03:42 28.4 °F /  -2 °C 27.9 °F /  -2.3 °C 26.59in /  900.3hPa Calm     98% 0.00in /  0cm
03:47 28.2 °F /  -2.1 °C 27.7 °F /  -2.4 °C 26.59in /  900.3hPa Calm     98% 0.00in /  0cm
03:52 28.4 °F /  -2 °C 27.9 °F /  -2.3 °C 26.59in /  900.3hPa Calm     98% 0.00in /  0cm
03:57 28.4 °F /  -2 °C 27.9 °F /  -2.3 °C 26.59in /  900.3hPa Calm     98% 0.00in /  0cm
Wether-Above
Compliments of Weather Underground
Welcome to Weather-Above
Cheddleton weather station supplies various organisations with data from our weather station one of them is the weather Underground this information displayed here is coming from the weather Underground server 

If any information is used please acknowledge the source to www weather-above.com or weather Underground